Disclaimer

Please do not use the information listed here in-flight or in-navigation, as they are not provided to us by the airports but are provided by volunteers, so they might be outdated.

Search


Regions


Airport information page

Radio informations:
FIS - 118.8 MHz

Airport informations:
Latitude: 09° 57' 28.66" N
Longitude: 083° 01' 19.22" W
Elevation: 7 feet - 2 meters
Operating hours: From sunrise to sunset (SR-SS)
Operating agency: Civil government, landing fees and diplomatic clearance may be required
Timezone: UTC-6
Fuel: N/A

Runway information:
14/32 - 5906 x 98 feet< - >1800 x 30 meters

Recent METARs:
MRLM 191600Z 24003KT 9999 DZ FEW020 BKN120 25/24 A2991
MRLM 191600Z 24003KT 9999 DZ FEW020 BKN120 25/24 A2991
MRLM 191700Z COR 08002KT 9999 SCT020 BKN120 26/24 A2989 REDZ

Airport on the map: